sensor_id;sensor_type;location;lat;lon;timestamp;P1;durP1;ratioP1;P2;durP2;ratioP2
22814;SDS011;11574;51.058;13.712;2023-05-23T00:00:10;11.63;;;4.70;;
22814;SDS011;11574;51.058;13.712;2023-05-23T00:05:13;12.07;;;4.73;;
22814;SDS011;11574;51.058;13.712;2023-05-23T00:10:17;11.87;;;4.80;;
22814;SDS011;11574;51.058;13.712;2023-05-23T00:15:20;11.37;;;4.87;;
22814;SDS011;11574;51.058;13.712;2023-05-23T00:20:22;9.37;;;5.07;;
22814;SDS011;11574;51.058;13.712;2023-05-23T00:25:25;9.13;;;5.03;;
22814;SDS011;11574;51.058;13.712;2023-05-23T00:30:34;8.77;;;5.47;;
22814;SDS011;11574;51.058;13.712;2023-05-23T00:35:36;9.23;;;4.80;;
22814;SDS011;11574;51.058;13.712;2023-05-23T00:40:39;8.17;;;5.57;;
22814;SDS011;11574;51.058;13.712;2023-05-23T00:45:42;10.33;;;5.73;;
22814;SDS011;11574;51.058;13.712;2023-05-23T00:50:44;11.73;;;5.80;;
22814;SDS011;11574;51.058;13.712;2023-05-23T00:55:47;18.10;;;6.37;;
22814;SDS011;11574;51.058;13.712;2023-05-23T01:00:51;14.40;;;6.57;;
22814;SDS011;11574;51.058;13.712;2023-05-23T01:05:54;11.17;;;7.00;;
22814;SDS011;11574;51.058;13.712;2023-05-23T01:10:56;14.90;;;6.53;;
22814;SDS011;11574;51.058;13.712;2023-05-23T01:16:04;10.73;;;6.13;;
22814;SDS011;11574;51.058;13.712;2023-05-23T01:21:08;12.17;;;6.57;;
22814;SDS011;11574;51.058;13.712;2023-05-23T01:26:13;15.50;;;7.87;;
22814;SDS011;11574;51.058;13.712;2023-05-23T01:31:20;13.90;;;6.80;;
22814;SDS011;11574;51.058;13.712;2023-05-23T01:36:23;12.33;;;6.83;;
22814;SDS011;11574;51.058;13.712;2023-05-23T01:41:27;15.40;;;7.57;;
22814;SDS011;11574;51.058;13.712;2023-05-23T01:46:30;12.60;;;7.20;;
22814;SDS011;11574;51.058;13.712;2023-05-23T01:51:33;11.07;;;6.73;;
22814;SDS011;11574;51.058;13.712;2023-05-23T01:56:35;11.13;;;6.77;;
22814;SDS011;11574;51.058;13.712;2023-05-23T02:01:39;14.57;;;6.70;;
22814;SDS011;11574;51.058;13.712;2023-05-23T02:06:41;10.30;;;6.20;;
22814;SDS011;11574;51.058;13.712;2023-05-23T02:11:43;9.00;;;6.37;;
22814;SDS011;11574;51.058;13.712;2023-05-23T02:16:47;11.20;;;5.77;;
22814;SDS011;11574;51.058;13.712;2023-05-23T02:21:51;12.00;;;6.27;;
22814;SDS011;11574;51.058;13.712;2023-05-23T02:26:54;8.57;;;6.27;;
22814;SDS011;11574;51.058;13.712;2023-05-23T02:31:57;8.97;;;5.97;;
22814;SDS011;11574;51.058;13.712;2023-05-23T02:36:59;8.13;;;6.10;;
22814;SDS011;11574;51.058;13.712;2023-05-23T02:42:02;9.47;;;5.97;;
22814;SDS011;11574;51.058;13.712;2023-05-23T02:47:06;9.03;;;6.10;;
22814;SDS011;11574;51.058;13.712;2023-05-23T02:52:08;8.77;;;6.43;;
22814;SDS011;11574;51.058;13.712;2023-05-23T02:57:10;7.07;;;4.90;;
22814;SDS011;11574;51.058;13.712;2023-05-23T03:02:14;8.20;;;5.50;;
22814;SDS011;11574;51.058;13.712;2023-05-23T03:07:16;7.40;;;5.37;;
22814;SDS011;11574;51.058;13.712;2023-05-23T03:12:18;10.30;;;5.03;;
22814;SDS011;11574;51.058;13.712;2023-05-23T03:17:23;8.93;;;5.17;;
22814;SDS011;11574;51.058;13.712;2023-05-23T03:22:25;10.10;;;5.77;;
22814;SDS011;11574;51.058;13.712;2023-05-23T03:27:27;9.80;;;5.40;;
22814;SDS011;11574;51.058;13.712;2023-05-23T03:32:31;8.60;;;4.80;;
22814;SDS011;11574;51.058;13.712;2023-05-23T03:37:34;10.67;;;6.00;;
22814;SDS011;11574;51.058;13.712;2023-05-23T03:42:37;7.70;;;5.60;;
22814;SDS011;11574;51.058;13.712;2023-05-23T03:47:41;7.87;;;5.90;;
22814;SDS011;11574;51.058;13.712;2023-05-23T03:52:43;10.77;;;6.50;;
22814;SDS011;11574;51.058;13.712;2023-05-23T03:57:47;13.33;;;6.50;;
22814;SDS011;11574;51.058;13.712;2023-05-23T04:02:51;8.33;;;6.20;;
22814;SDS011;11574;51.058;13.712;2023-05-23T04:07:53;10.37;;;5.23;;
22814;SDS011;11574;51.058;13.712;2023-05-23T04:12:56;12.53;;;6.17;;
22814;SDS011;11574;51.058;13.712;2023-05-23T04:17:59;7.10;;;4.80;;
22814;SDS011;11574;51.058;13.712;2023-05-23T04:23:02;11.33;;;5.60;;
22814;SDS011;11574;51.058;13.712;2023-05-23T04:28:04;11.67;;;5.53;;
22814;SDS011;11574;51.058;13.712;2023-05-23T04:33:10;11.80;;;5.17;;
22814;SDS011;11574;51.058;13.712;2023-05-23T04:38:12;11.53;;;5.50;;
22814;SDS011;11574;51.058;13.712;2023-05-23T04:43:15;7.47;;;4.73;;
22814;SDS011;11574;51.058;13.712;2023-05-23T04:48:20;8.27;;;4.90;;
22814;SDS011;11574;51.058;13.712;2023-05-23T04:53:22;7.03;;;4.70;;
22814;SDS011;11574;51.058;13.712;2023-05-23T04:58:24;7.63;;;5.27;;
22814;SDS011;11574;51.058;13.712;2023-05-23T05:03:28;8.77;;;5.10;;
22814;SDS011;11574;51.058;13.712;2023-05-23T05:08:30;7.00;;;4.90;;
22814;SDS011;11574;51.058;13.712;2023-05-23T05:13:33;6.17;;;4.23;;
22814;SDS011;11574;51.058;13.712;2023-05-23T05:18:37;11.47;;;5.10;;
22814;SDS011;11574;51.058;13.712;2023-05-23T05:23:39;10.20;;;5.70;;
22814;SDS011;11574;51.058;13.712;2023-05-23T05:28:42;10.47;;;6.30;;
22814;SDS011;11574;51.058;13.712;2023-05-23T05:33:46;13.83;;;7.03;;
22814;SDS011;11574;51.058;13.712;2023-05-23T05:38:48;9.63;;;6.87;;
22814;SDS011;11574;51.058;13.712;2023-05-23T05:43:52;14.63;;;7.37;;
22814;SDS011;11574;51.058;13.712;2023-05-23T05:48:55;14.90;;;7.33;;
22814;SDS011;11574;51.058;13.712;2023-05-23T05:53:58;10.60;;;6.87;;
22814;SDS011;11574;51.058;13.712;2023-05-23T05:59:00;13.30;;;7.47;;
22814;SDS011;11574;51.058;13.712;2023-05-23T06:04:03;13.33;;;8.57;;
22814;SDS011;11574;51.058;13.712;2023-05-23T06:09:06;16.20;;;9.93;;
22814;SDS011;11574;51.058;13.712;2023-05-23T06:14:08;15.53;;;11.03;;
22814;SDS011;11574;51.058;13.712;2023-05-23T06:19:11;16.70;;;11.27;;
22814;SDS011;11574;51.058;13.712;2023-05-23T06:24:14;15.67;;;11.43;;
22814;SDS011;11574;51.058;13.712;2023-05-23T06:29:16;22.70;;;11.60;;
22814;SDS011;11574;51.058;13.712;2023-05-23T06:34:19;16.23;;;11.37;;
22814;SDS011;11574;51.058;13.712;2023-05-23T06:39:22;18.17;;;11.03;;
22814;SDS011;11574;51.058;13.712;2023-05-23T06:44:24;16.17;;;11.00;;
22814;SDS011;11574;51.058;13.712;2023-05-23T06:49:27;18.53;;;10.70;;
22814;SDS011;11574;51.058;13.712;2023-05-23T06:54:30;13.30;;;10.43;;
22814;SDS011;11574;51.058;13.712;2023-05-23T06:59:32;11.90;;;10.23;;
22814;SDS011;11574;51.058;13.712;2023-05-23T07:04:35;18.07;;;10.60;;
22814;SDS011;11574;51.058;13.712;2023-05-23T07:09:37;16.23;;;10.30;;
22814;SDS011;11574;51.058;13.712;2023-05-23T07:14:40;13.97;;;8.73;;
22814;SDS011;11574;51.058;13.712;2023-05-23T07:19:44;11.73;;;8.70;;
22814;SDS011;11574;51.058;13.712;2023-05-23T07:24:46;12.27;;;8.67;;
22814;SDS011;11574;51.058;13.712;2023-05-23T07:29:48;17.63;;;9.73;;
22814;SDS011;11574;51.058;13.712;2023-05-23T07:34:52;13.73;;;9.10;;
22814;SDS011;11574;51.058;13.712;2023-05-23T07:39:54;9.93;;;8.20;;
22814;SDS011;11574;51.058;13.712;2023-05-23T07:44:56;9.97;;;7.93;;
22814;SDS011;11574;51.058;13.712;2023-05-23T07:50:00;12.57;;;8.43;;
22814;SDS011;11574;51.058;13.712;2023-05-23T07:55:02;13.60;;;8.27;;
22814;SDS011;11574;51.058;13.712;2023-05-23T08:00:05;12.70;;;8.40;;
22814;SDS011;11574;51.058;13.712;2023-05-23T08:05:10;15.27;;;8.57;;
22814;SDS011;11574;51.058;13.712;2023-05-23T08:10:12;11.33;;;8.20;;
22814;SDS011;11574;51.058;13.712;2023-05-23T08:15:15;14.90;;;8.53;;
22814;SDS011;11574;51.058;13.712;2023-05-23T08:20:18;18.50;;;9.03;;
22814;SDS011;11574;51.058;13.712;2023-05-23T08:25:20;13.27;;;9.87;;
22814;SDS011;11574;51.058;13.712;2023-05-23T08:30:23;12.33;;;8.97;;
22814;SDS011;11574;51.058;13.712;2023-05-23T08:35:27;16.37;;;10.07;;
22814;SDS011;11574;51.058;13.712;2023-05-23T08:40:34;12.20;;;9.10;;
22814;SDS011;11574;51.058;13.712;2023-05-23T08:45:36;14.77;;;8.80;;
22814;SDS011;11574;51.058;13.712;2023-05-23T08:50:42;11.23;;;8.60;;
22814;SDS011;11574;51.058;13.712;2023-05-23T08:55:45;12.47;;;8.30;;
22814;SDS011;11574;51.058;13.712;2023-05-23T09:00:47;11.40;;;8.13;;
22814;SDS011;11574;51.058;13.712;2023-05-23T09:05:51;15.90;;;9.50;;
22814;SDS011;11574;51.058;13.712;2023-05-23T09:10:54;14.87;;;11.07;;
22814;SDS011;11574;51.058;13.712;2023-05-23T09:16:00;16.07;;;11.57;;
22814;SDS011;11574;51.058;13.712;2023-05-23T09:21:04;19.27;;;13.80;;
22814;SDS011;11574;51.058;13.712;2023-05-23T09:26:06;19.90;;;16.87;;
22814;SDS011;11574;51.058;13.712;2023-05-23T09:31:09;23.23;;;18.03;;
22814;SDS011;11574;51.058;13.712;2023-05-23T09:36:13;28.77;;;21.43;;
22814;SDS011;11574;51.058;13.712;2023-05-23T09:41:18;28.93;;;22.97;;
22814;SDS011;11574;51.058;13.712;2023-05-23T09:46:20;32.43;;;23.00;;
22814;SDS011;11574;51.058;13.712;2023-05-23T09:51:24;33.87;;;23.87;;
22814;SDS011;11574;51.058;13.712;2023-05-23T09:56:27;32.23;;;22.53;;
22814;SDS011;11574;51.058;13.712;2023-05-23T10:01:29;36.07;;;22.03;;
22814;SDS011;11574;51.058;13.712;2023-05-23T10:06:36;27.03;;;19.67;;
22814;SDS011;11574;51.058;13.712;2023-05-23T10:17:06;18.33;;;12.00;;
22814;SDS011;11574;51.058;13.712;2023-05-23T10:22:11;16.60;;;10.10;;
22814;SDS011;11574;51.058;13.712;2023-05-23T10:27:15;18.53;;;8.90;;
22814;SDS011;11574;51.058;13.712;2023-05-23T10:32:17;10.87;;;8.43;;
22814;SDS011;11574;51.058;13.712;2023-05-23T10:37:23;10.30;;;7.90;;
22814;SDS011;11574;51.058;13.712;2023-05-23T10:42:32;12.67;;;8.67;;
22814;SDS011;11574;51.058;13.712;2023-05-23T10:47:36;12.87;;;8.60;;
22814;SDS011;11574;51.058;13.712;2023-05-23T10:52:40;11.27;;;7.30;;
22814;SDS011;11574;51.058;13.712;2023-05-23T10:57:43;13.60;;;7.30;;
22814;SDS011;11574;51.058;13.712;2023-05-23T11:02:46;9.90;;;7.47;;
22814;SDS011;11574;51.058;13.712;2023-05-23T11:08:09;10.13;;;7.57;;
22814;SDS011;11574;51.058;13.712;2023-05-23T11:13:12;14.67;;;7.97;;
22814;SDS011;11574;51.058;13.712;2023-05-23T11:18:18;12.80;;;8.20;;
22814;SDS011;11574;51.058;13.712;2023-05-23T11:23:22;14.07;;;8.20;;
22814;SDS011;11574;51.058;13.712;2023-05-23T11:28:25;10.47;;;7.87;;
22814;SDS011;11574;51.058;13.712;2023-05-23T11:33:27;10.63;;;8.13;;
22814;SDS011;11574;51.058;13.712;2023-05-23T11:38:32;12.60;;;7.43;;
22814;SDS011;11574;51.058;13.712;2023-05-23T11:43:34;15.03;;;7.57;;
22814;SDS011;11574;51.058;13.712;2023-05-23T11:48:37;15.63;;;8.50;;
22814;SDS011;11574;51.058;13.712;2023-05-23T11:53:40;10.97;;;7.30;;
22814;SDS011;11574;51.058;13.712;2023-05-23T11:58:42;16.10;;;8.73;;
22814;SDS011;11574;51.058;13.712;2023-05-23T12:03:45;11.03;;;8.60;;
22814;SDS011;11574;51.058;13.712;2023-05-23T12:08:49;10.30;;;7.83;;
22814;SDS011;11574;51.058;13.712;2023-05-23T12:13:52;10.90;;;7.63;;
22814;SDS011;11574;51.058;13.712;2023-05-23T12:18:54;11.23;;;8.17;;
22814;SDS011;11574;51.058;13.712;2023-05-23T12:23:59;10.13;;;8.33;;
22814;SDS011;11574;51.058;13.712;2023-05-23T12:29:11;10.77;;;8.63;;
22814;SDS011;11574;51.058;13.712;2023-05-23T12:34:14;11.53;;;8.07;;
22814;SDS011;11574;51.058;13.712;2023-05-23T12:39:22;10.13;;;8.20;;
22814;SDS011;11574;51.058;13.712;2023-05-23T12:44:28;14.60;;;8.37;;
22814;SDS011;11574;51.058;13.712;2023-05-23T12:49:31;8.33;;;5.50;;
22814;SDS011;11574;51.058;13.712;2023-05-23T12:54:35;9.30;;;5.30;;
22814;SDS011;11574;51.058;13.712;2023-05-23T12:59:37;9.63;;;5.50;;
22814;SDS011;11574;51.058;13.712;2023-05-23T13:04:39;9.40;;;5.90;;
22814;SDS011;11574;51.058;13.712;2023-05-23T13:09:43;6.50;;;4.93;;
22814;SDS011;11574;51.058;13.712;2023-05-23T13:14:45;6.17;;;4.47;;
22814;SDS011;11574;51.058;13.712;2023-05-23T13:19:48;5.70;;;4.33;;
22814;SDS011;11574;51.058;13.712;2023-05-23T13:24:51;6.40;;;4.70;;
22814;SDS011;11574;51.058;13.712;2023-05-23T13:29:54;9.77;;;4.97;;
22814;SDS011;11574;51.058;13.712;2023-05-23T13:34:56;13.63;;;6.23;;
22814;SDS011;11574;51.058;13.712;2023-05-23T13:40:01;7.00;;;6.17;;
22814;SDS011;11574;51.058;13.712;2023-05-23T13:45:06;10.83;;;6.20;;
22814;SDS011;11574;51.058;13.712;2023-05-23T13:50:08;8.07;;;5.67;;
22814;SDS011;11574;51.058;13.712;2023-05-23T13:55:12;5.23;;;4.47;;
22814;SDS011;11574;51.058;13.712;2023-05-23T14:00:14;6.70;;;5.27;;
22814;SDS011;11574;51.058;13.712;2023-05-23T14:05:16;14.67;;;5.43;;
22814;SDS011;11574;51.058;13.712;2023-05-23T14:10:20;10.33;;;5.30;;
22814;SDS011;11574;51.058;13.712;2023-05-23T14:15:23;6.83;;;4.53;;
22814;SDS011;11574;51.058;13.712;2023-05-23T14:20:25;5.53;;;3.87;;
22814;SDS011;11574;51.058;13.712;2023-05-23T14:25:30;9.70;;;3.70;;
22814;SDS011;11574;51.058;13.712;2023-05-23T14:30:32;4.50;;;2.93;;
22814;SDS011;11574;51.058;13.712;2023-05-23T14:35:34;6.47;;;3.10;;
22814;SDS011;11574;51.058;13.712;2023-05-23T14:40:40;5.83;;;2.77;;
22814;SDS011;11574;51.058;13.712;2023-05-23T14:45:42;2.93;;;2.63;;
22814;SDS011;11574;51.058;13.712;2023-05-23T14:50:44;4.97;;;3.30;;
22814;SDS011;11574;51.058;13.712;2023-05-23T14:55:48;5.17;;;3.77;;
22814;SDS011;11574;51.058;13.712;2023-05-23T15:00:50;5.70;;;3.53;;
22814;SDS011;11574;51.058;13.712;2023-05-23T15:05:52;8.43;;;4.40;;
22814;SDS011;11574;51.058;13.712;2023-05-23T15:10:56;11.53;;;4.83;;
22814;SDS011;11574;51.058;13.712;2023-05-23T15:15:58;9.03;;;4.30;;
22814;SDS011;11574;51.058;13.712;2023-05-23T15:21:01;7.03;;;4.47;;
22814;SDS011;11574;51.058;13.712;2023-05-23T15:26:04;7.53;;;4.20;;
22814;SDS011;11574;51.058;13.712;2023-05-23T15:31:08;6.40;;;4.07;;
22814;SDS011;11574;51.058;13.712;2023-05-23T15:36:10;9.50;;;4.17;;
22814;SDS011;11574;51.058;13.712;2023-05-23T15:41:14;5.77;;;3.77;;
22814;SDS011;11574;51.058;13.712;2023-05-23T15:46:17;4.03;;;3.03;;
22814;SDS011;11574;51.058;13.712;2023-05-23T15:51:19;7.43;;;3.03;;
22814;SDS011;11574;51.058;13.712;2023-05-23T15:56:23;3.50;;;2.80;;
22814;SDS011;11574;51.058;13.712;2023-05-23T16:01:26;4.33;;;2.70;;
22814;SDS011;11574;51.058;13.712;2023-05-23T16:06:29;9.43;;;2.90;;
22814;SDS011;11574;51.058;13.712;2023-05-23T16:11:33;3.03;;;2.70;;
22814;SDS011;11574;51.058;13.712;2023-05-23T16:16:35;3.23;;;2.93;;
22814;SDS011;11574;51.058;13.712;2023-05-23T16:21:37;4.60;;;3.63;;
22814;SDS011;11574;51.058;13.712;2023-05-23T16:26:41;3.93;;;3.53;;
22814;SDS011;11574;51.058;13.712;2023-05-23T16:31:43;4.23;;;3.83;;
22814;SDS011;11574;51.058;13.712;2023-05-23T16:36:45;5.33;;;3.67;;
22814;SDS011;11574;51.058;13.712;2023-05-23T16:41:49;9.00;;;4.27;;
22814;SDS011;11574;51.058;13.712;2023-05-23T16:46:51;5.27;;;2.97;;
22814;SDS011;11574;51.058;13.712;2023-05-23T16:51:53;4.33;;;3.10;;
22814;SDS011;11574;51.058;13.712;2023-05-23T16:56:57;4.50;;;2.87;;
22814;SDS011;11574;51.058;13.712;2023-05-23T17:02:00;5.77;;;2.90;;
22814;SDS011;11574;51.058;13.712;2023-05-23T17:07:03;5.53;;;3.10;;
22814;SDS011;11574;51.058;13.712;2023-05-23T17:12:08;5.63;;;3.17;;
22814;SDS011;11574;51.058;13.712;2023-05-23T17:17:12;9.43;;;3.73;;
22814;SDS011;11574;51.058;13.712;2023-05-23T17:22:14;4.40;;;3.30;;
22814;SDS011;11574;51.058;13.712;2023-05-23T17:27:24;7.10;;;3.07;;
22814;SDS011;11574;51.058;13.712;2023-05-23T17:32:26;4.10;;;3.40;;
22814;SDS011;11574;51.058;13.712;2023-05-23T17:37:28;3.80;;;3.17;;
22814;SDS011;11574;51.058;13.712;2023-05-23T17:42:32;3.40;;;2.87;;
22814;SDS011;11574;51.058;13.712;2023-05-23T17:47:34;5.27;;;2.60;;
22814;SDS011;11574;51.058;13.712;2023-05-23T17:52:36;2.57;;;2.30;;
22814;SDS011;11574;51.058;13.712;2023-05-23T17:57:40;2.77;;;2.20;;
22814;SDS011;11574;51.058;13.712;2023-05-23T18:02:42;2.50;;;1.77;;
22814;SDS011;11574;51.058;13.712;2023-05-23T18:07:44;3.43;;;1.90;;
22814;SDS011;11574;51.058;13.712;2023-05-23T18:12:49;3.90;;;2.00;;
22814;SDS011;11574;51.058;13.712;2023-05-23T18:17:51;2.20;;;2.00;;
22814;SDS011;11574;51.058;13.712;2023-05-23T18:22:54;4.17;;;3.00;;
22814;SDS011;11574;51.058;13.712;2023-05-23T18:27:58;5.23;;;2.90;;
22814;SDS011;11574;51.058;13.712;2023-05-23T18:33:00;3.70;;;2.80;;
22814;SDS011;11574;51.058;13.712;2023-05-23T18:38:03;4.20;;;3.10;;
22814;SDS011;11574;51.058;13.712;2023-05-23T18:43:07;4.17;;;2.90;;
22814;SDS011;11574;51.058;13.712;2023-05-23T18:48:09;5.07;;;3.77;;
22814;SDS011;11574;51.058;13.712;2023-05-23T18:53:12;7.47;;;5.07;;
22814;SDS011;11574;51.058;13.712;2023-05-23T18:58:16;11.60;;;5.40;;
22814;SDS011;11574;51.058;13.712;2023-05-23T19:03:18;12.70;;;5.80;;
22814;SDS011;11574;51.058;13.712;2023-05-23T19:08:20;14.00;;;8.77;;
22814;SDS011;11574;51.058;13.712;2023-05-23T19:13:24;16.90;;;9.47;;
22814;SDS011;11574;51.058;13.712;2023-05-23T19:18:26;19.13;;;9.43;;
22814;SDS011;11574;51.058;13.712;2023-05-23T19:23:28;22.53;;;10.07;;
22814;SDS011;11574;51.058;13.712;2023-05-23T19:28:32;19.17;;;9.40;;
22814;SDS011;11574;51.058;13.712;2023-05-23T19:33:36;19.83;;;9.50;;
22814;SDS011;11574;51.058;13.712;2023-05-23T19:38:38;12.33;;;8.07;;
22814;SDS011;11574;51.058;13.712;2023-05-23T19:43:42;17.87;;;7.33;;
22814;SDS011;11574;51.058;13.712;2023-05-23T19:48:44;18.00;;;8.30;;
22814;SDS011;11574;51.058;13.712;2023-05-23T19:53:48;18.10;;;6.80;;
22814;SDS011;11574;51.058;13.712;2023-05-23T19:58:52;21.67;;;7.27;;
22814;SDS011;11574;51.058;13.712;2023-05-23T20:03:56;15.50;;;6.50;;
22814;SDS011;11574;51.058;13.712;2023-05-23T20:08:59;18.07;;;6.20;;
22814;SDS011;11574;51.058;13.712;2023-05-23T20:14:03;19.33;;;5.63;;
22814;SDS011;11574;51.058;13.712;2023-05-23T20:19:05;15.90;;;6.27;;
22814;SDS011;11574;51.058;13.712;2023-05-23T20:24:10;17.63;;;6.20;;
22814;SDS011;11574;51.058;13.712;2023-05-23T20:29:15;15.60;;;5.57;;
22814;SDS011;11574;51.058;13.712;2023-05-23T20:34:17;15.53;;;6.10;;
22814;SDS011;11574;51.058;13.712;2023-05-23T20:39:19;14.53;;;5.57;;
22814;SDS011;11574;51.058;13.712;2023-05-23T20:44:27;15.20;;;5.57;;
22814;SDS011;11574;51.058;13.712;2023-05-23T20:49:30;15.07;;;5.50;;
22814;SDS011;11574;51.058;13.712;2023-05-23T20:54:34;20.40;;;5.97;;
22814;SDS011;11574;51.058;13.712;2023-05-23T20:59:37;15.17;;;4.53;;
22814;SDS011;11574;51.058;13.712;2023-05-23T21:04:40;14.53;;;4.97;;
22814;SDS011;11574;51.058;13.712;2023-05-23T21:09:42;17.83;;;5.37;;
22814;SDS011;11574;51.058;13.712;2023-05-23T21:14:48;15.10;;;6.67;;
22814;SDS011;11574;51.058;13.712;2023-05-23T21:19:51;13.87;;;5.47;;
22814;SDS011;11574;51.058;13.712;2023-05-23T21:24:53;15.80;;;6.20;;
22814;SDS011;11574;51.058;13.712;2023-05-23T21:29:56;14.50;;;5.57;;
22814;SDS011;11574;51.058;13.712;2023-05-23T21:34:59;16.67;;;6.63;;
22814;SDS011;11574;51.058;13.712;2023-05-23T21:40:01;12.87;;;5.83;;
22814;SDS011;11574;51.058;13.712;2023-05-23T21:45:05;15.27;;;6.23;;
22814;SDS011;11574;51.058;13.712;2023-05-23T21:50:08;20.67;;;7.30;;
22814;SDS011;11574;51.058;13.712;2023-05-23T21:55:10;15.93;;;6.83;;
22814;SDS011;11574;51.058;13.712;2023-05-23T22:00:14;14.87;;;6.93;;
22814;SDS011;11574;51.058;13.712;2023-05-23T22:05:18;19.67;;;6.80;;
22814;SDS011;11574;51.058;13.712;2023-05-23T22:10:21;12.60;;;5.90;;
22814;SDS011;11574;51.058;13.712;2023-05-23T22:15:24;21.20;;;6.60;;
22814;SDS011;11574;51.058;13.712;2023-05-23T22:20:26;19.90;;;5.37;;
22814;SDS011;11574;51.058;13.712;2023-05-23T22:25:29;16.13;;;5.63;;
22814;SDS011;11574;51.058;13.712;2023-05-23T22:30:35;13.33;;;4.97;;
22814;SDS011;11574;51.058;13.712;2023-05-23T22:35:38;15.80;;;4.80;;
22814;SDS011;11574;51.058;13.712;2023-05-23T22:40:40;17.07;;;4.43;;
22814;SDS011;11574;51.058;13.712;2023-05-23T22:45:44;16.60;;;5.87;;
22814;SDS011;11574;51.058;13.712;2023-05-23T22:50:48;18.43;;;4.80;;
22814;SDS011;11574;51.058;13.712;2023-05-23T22:55:53;20.73;;;4.57;;
22814;SDS011;11574;51.058;13.712;2023-05-23T23:00:57;16.83;;;4.33;;
22814;SDS011;11574;51.058;13.712;2023-05-23T23:05:59;17.00;;;4.27;;
22814;SDS011;11574;51.058;13.712;2023-05-23T23:11:05;10.73;;;3.93;;
22814;SDS011;11574;51.058;13.712;2023-05-23T23:16:08;16.80;;;4.43;;
22814;SDS011;11574;51.058;13.712;2023-05-23T23:21:11;18.17;;;4.57;;
22814;SDS011;11574;51.058;13.712;2023-05-23T23:26:13;12.07;;;4.07;;
22814;SDS011;11574;51.058;13.712;2023-05-23T23:31:17;11.10;;;3.57;;
22814;SDS011;11574;51.058;13.712;2023-05-23T23:36:19;14.17;;;4.20;;
22814;SDS011;11574;51.058;13.712;2023-05-23T23:41:21;16.00;;;3.70;;
22814;SDS011;11574;51.058;13.712;2023-05-23T23:46:27;21.27;;;4.03;;
22814;SDS011;11574;51.058;13.712;2023-05-23T23:51:30;11.33;;;3.70;;
22814;SDS011;11574;51.058;13.712;2023-05-23T23:56:32;16.43;;;3.63;;
